sensor_id;sensor_type;location;lat;lon;timestamp;temperature;humidity
15111;DHT22;7656;51.954;7.998;2023-04-06T00:02:14;3.70;99.90
15111;DHT22;7656;51.954;7.998;2023-04-06T00:06:35;3.80;99.90
15111;DHT22;7656;51.954;7.998;2023-04-06T00:10:56;3.50;99.90
15111;DHT22;7656;51.954;7.998;2023-04-06T00:15:17;3.20;99.90
15111;DHT22;7656;51.954;7.998;2023-04-06T00:19:39;3.10;99.90
15111;DHT22;7656;51.954;7.998;2023-04-06T00:24:00;3.10;99.90
15111;DHT22;7656;51.954;7.998;2023-04-06T00:28:21;3.10;99.90
15111;DHT22;7656;51.954;7.998;2023-04-06T00:32:46;3.00;99.90
15111;DHT22;7656;51.954;7.998;2023-04-06T00:37:07;2.80;99.90
15111;DHT22;7656;51.954;7.998;2023-04-06T00:41:28;2.50;99.90
15111;DHT22;7656;51.954;7.998;2023-04-06T00:45:49;2.70;99.90
15111;DHT22;7656;51.954;7.998;2023-04-06T00:50:10;2.80;99.90
15111;DHT22;7656;51.954;7.998;2023-04-06T00:54:31;2.70;99.90
15111;DHT22;7656;51.954;7.998;2023-04-06T00:58:54;3.00;99.90
15111;DHT22;7656;51.954;7.998;2023-04-06T01:03:16;3.00;99.90
15111;DHT22;7656;51.954;7.998;2023-04-06T01:07:38;2.90;99.90
15111;DHT22;7656;51.954;7.998;2023-04-06T01:12:19;3.00;99.90
15111;DHT22;7656;51.954;7.998;2023-04-06T01:16:42;3.00;99.90
15111;DHT22;7656;51.954;7.998;2023-04-06T01:21:10;3.10;99.90
15111;DHT22;7656;51.954;7.998;2023-04-06T01:25:40;3.30;99.90
15111;DHT22;7656;51.954;7.998;2023-04-06T01:30:03;3.30;99.90
15111;DHT22;7656;51.954;7.998;2023-04-06T01:34:45;3.10;99.90
15111;DHT22;7656;51.954;7.998;2023-04-06T01:39:06;2.90;99.90
15111;DHT22;7656;51.954;7.998;2023-04-06T01:43:31;3.00;99.90
15111;DHT22;7656;51.954;7.998;2023-04-06T01:48:01;3.00;99.90
15111;DHT22;7656;51.954;7.998;2023-04-06T01:52:24;2.90;99.90
15111;DHT22;7656;51.954;7.998;2023-04-06T01:56:48;2.90;99.90
15111;DHT22;7656;51.954;7.998;2023-04-06T02:01:37;2.80;99.90
15111;DHT22;7656;51.954;7.998;2023-04-06T02:05:58;2.80;99.90
15111;DHT22;7656;51.954;7.998;2023-04-06T02:10:26;2.80;99.90
15111;DHT22;7656;51.954;7.998;2023-04-06T02:14:48;2.80;99.90
15111;DHT22;7656;51.954;7.998;2023-04-06T02:19:10;3.00;99.90
15111;DHT22;7656;51.954;7.998;2023-04-06T02:23:31;3.00;99.90
15111;DHT22;7656;51.954;7.998;2023-04-06T02:27:52;2.80;99.90
15111;DHT22;7656;51.954;7.998;2023-04-06T02:32:13;2.80;99.90
15111;DHT22;7656;51.954;7.998;2023-04-06T02:36:34;2.80;99.90
15111;DHT22;7656;51.954;7.998;2023-04-06T02:40:56;2.70;99.90
15111;DHT22;7656;51.954;7.998;2023-04-06T02:45:19;2.60;99.90
15111;DHT22;7656;51.954;7.998;2023-04-06T02:49:42;2.70;99.90
15111;DHT22;7656;51.954;7.998;2023-04-06T02:54:04;2.50;99.90
15111;DHT22;7656;51.954;7.998;2023-04-06T02:58:26;2.60;99.90
15111;DHT22;7656;51.954;7.998;2023-04-06T03:02:50;2.50;99.90
15111;DHT22;7656;51.954;7.998;2023-04-06T03:07:13;2.40;99.90
15111;DHT22;7656;51.954;7.998;2023-04-06T03:11:34;2.40;99.90
15111;DHT22;7656;51.954;7.998;2023-04-06T03:15:55;2.50;99.90
15111;DHT22;7656;51.954;7.998;2023-04-06T03:20:17;2.20;99.90
15111;DHT22;7656;51.954;7.998;2023-04-06T03:24:39;2.20;99.90
15111;DHT22;7656;51.954;7.998;2023-04-06T03:29:00;1.90;99.90
15111;DHT22;7656;51.954;7.998;2023-04-06T03:33:25;1.90;99.90
15111;DHT22;7656;51.954;7.998;2023-04-06T03:37:50;1.90;99.90
15111;DHT22;7656;51.954;7.998;2023-04-06T03:42:11;2.00;99.90
15111;DHT22;7656;51.954;7.998;2023-04-06T03:46:39;1.90;99.90
15111;DHT22;7656;51.954;7.998;2023-04-06T03:51:00;1.80;99.90
15111;DHT22;7656;51.954;7.998;2023-04-06T03:55:21;1.90;99.90
15111;DHT22;7656;51.954;7.998;2023-04-06T03:59:43;1.90;99.90
15111;DHT22;7656;51.954;7.998;2023-04-06T04:04:04;1.80;99.90
15111;DHT22;7656;51.954;7.998;2023-04-06T04:08:26;1.60;99.90
15111;DHT22;7656;51.954;7.998;2023-04-06T04:12:47;1.70;99.90
15111;DHT22;7656;51.954;7.998;2023-04-06T04:17:08;1.80;99.90
15111;DHT22;7656;51.954;7.998;2023-04-06T04:21:30;1.70;99.90
15111;DHT22;7656;51.954;7.998;2023-04-06T04:25:53;1.70;99.90
15111;DHT22;7656;51.954;7.998;2023-04-06T04:30:15;1.60;99.90
15111;DHT22;7656;51.954;7.998;2023-04-06T04:34:36;1.50;99.90
15111;DHT22;7656;51.954;7.998;2023-04-06T04:39:01;1.60;99.90
15111;DHT22;7656;51.954;7.998;2023-04-06T04:43:26;1.40;99.90
15111;DHT22;7656;51.954;7.998;2023-04-06T04:47:48;1.40;99.90
15111;DHT22;7656;51.954;7.998;2023-04-06T04:52:11;1.30;99.90
15111;DHT22;7656;51.954;7.998;2023-04-06T04:56:43;1.30;99.90
15111;DHT22;7656;51.954;7.998;2023-04-06T05:01:23;1.50;99.90
15111;DHT22;7656;51.954;7.998;2023-04-06T05:05:46;1.50;99.90
15111;DHT22;7656;51.954;7.998;2023-04-06T05:10:10;1.50;99.90
15111;DHT22;7656;51.954;7.998;2023-04-06T05:14:40;1.40;99.90
15111;DHT22;7656;51.954;7.998;2023-04-06T05:19:07;1.60;99.90
15111;DHT22;7656;51.954;7.998;2023-04-06T05:23:35;1.70;99.90
15111;DHT22;7656;51.954;7.998;2023-04-06T05:27:57;1.80;99.90
15111;DHT22;7656;51.954;7.998;2023-04-06T05:32:30;1.70;99.90
15111;DHT22;7656;51.954;7.998;2023-04-06T05:36:52;1.80;99.90
15111;DHT22;7656;51.954;7.998;2023-04-06T05:41:17;1.80;99.90
15111;DHT22;7656;51.954;7.998;2023-04-06T05:45:39;2.10;99.90
15111;DHT22;7656;51.954;7.998;2023-04-06T05:50:01;3.00;99.90
15111;DHT22;7656;51.954;7.998;2023-04-06T05:54:27;3.80;99.90
15111;DHT22;7656;51.954;7.998;2023-04-06T05:58:54;5.10;99.90
15111;DHT22;7656;51.954;7.998;2023-04-06T06:03:21;6.40;99.90
15111;DHT22;7656;51.954;7.998;2023-04-06T06:07:47;6.40;99.90
15111;DHT22;7656;51.954;7.998;2023-04-06T06:12:09;6.10;99.90
15111;DHT22;7656;51.954;7.998;2023-04-06T06:16:30;5.10;99.90
15111;DHT22;7656;51.954;7.998;2023-04-06T06:20:52;5.50;99.90
15111;DHT22;7656;51.954;7.998;2023-04-06T06:25:15;6.50;99.90
15111;DHT22;7656;51.954;7.998;2023-04-06T06:29:37;6.80;99.90
15111;DHT22;7656;51.954;7.998;2023-04-06T06:33:58;8.30;99.90
15111;DHT22;7656;51.954;7.998;2023-04-06T06:38:20;9.80;99.90
15111;DHT22;7656;51.954;7.998;2023-04-06T06:42:41;11.60;99.90
15111;DHT22;7656;51.954;7.998;2023-04-06T06:47:11;13.40;99.90
15111;DHT22;7656;51.954;7.998;2023-04-06T06:51:32;12.80;99.90
15111;DHT22;7656;51.954;7.998;2023-04-06T06:55:55;14.20;99.90
15111;DHT22;7656;51.954;7.998;2023-04-06T07:00:17;15.70;99.70
15111;DHT22;7656;51.954;7.998;2023-04-06T07:04:41;17.50;91.70
15111;DHT22;7656;51.954;7.998;2023-04-06T07:09:02;16.80;89.40
15111;DHT22;7656;51.954;7.998;2023-04-06T07:13:24;18.90;88.30
15111;DHT22;7656;51.954;7.998;2023-04-06T07:17:48;20.90;76.20
15111;DHT22;7656;51.954;7.998;2023-04-06T07:22:09;19.70;74.20
15111;DHT22;7656;51.954;7.998;2023-04-06T07:26:30;20.40;72.70
15111;DHT22;7656;51.954;7.998;2023-04-06T07:30:51;21.90;69.60
15111;DHT22;7656;51.954;7.998;2023-04-06T07:35:15;22.70;65.20
15111;DHT22;7656;51.954;7.998;2023-04-06T07:39:37;22.30;62.40
15111;DHT22;7656;51.954;7.998;2023-04-06T07:43:59;23.10;61.60
15111;DHT22;7656;51.954;7.998;2023-04-06T07:48:21;24.00;59.30
15111;DHT22;7656;51.954;7.998;2023-04-06T07:52:42;23.20;58.10
15111;DHT22;7656;51.954;7.998;2023-04-06T07:57:04;22.70;57.30
15111;DHT22;7656;51.954;7.998;2023-04-06T08:01:25;20.70;62.70
15111;DHT22;7656;51.954;7.998;2023-04-06T08:05:47;21.10;60.20
15111;DHT22;7656;51.954;7.998;2023-04-06T08:10:09;21.50;60.00
15111;DHT22;7656;51.954;7.998;2023-04-06T08:14:31;21.90;58.90
15111;DHT22;7656;51.954;7.998;2023-04-06T08:18:52;22.40;58.90
15111;DHT22;7656;51.954;7.998;2023-04-06T08:23:13;22.80;59.90
15111;DHT22;7656;51.954;7.998;2023-04-06T08:27:34;23.10;57.20
15111;DHT22;7656;51.954;7.998;2023-04-06T08:31:55;25.70;55.90
15111;DHT22;7656;51.954;7.998;2023-04-06T08:36:17;25.60;50.50
15111;DHT22;7656;51.954;7.998;2023-04-06T08:40:43;21.50;57.60
15111;DHT22;7656;51.954;7.998;2023-04-06T08:45:05;22.30;58.40
15111;DHT22;7656;51.954;7.998;2023-04-06T08:49:27;26.50;54.00
15111;DHT22;7656;51.954;7.998;2023-04-06T08:53:49;23.60;53.50
15111;DHT22;7656;51.954;7.998;2023-04-06T08:58:11;22.30;54.70
15111;DHT22;7656;51.954;7.998;2023-04-06T09:02:33;18.60;57.00
15111;DHT22;7656;51.954;7.998;2023-04-06T09:06:54;19.50;56.50
15111;DHT22;7656;51.954;7.998;2023-04-06T09:11:16;22.20;51.80
15111;DHT22;7656;51.954;7.998;2023-04-06T09:15:37;24.20;50.70
15111;DHT22;7656;51.954;7.998;2023-04-06T09:20:00;20.60;52.90
15111;DHT22;7656;51.954;7.998;2023-04-06T09:24:21;20.60;54.00
15111;DHT22;7656;51.954;7.998;2023-04-06T09:28:48;20.80;55.90
15111;DHT22;7656;51.954;7.998;2023-04-06T09:33:10;22.50;53.30
15111;DHT22;7656;51.954;7.998;2023-04-06T09:37:31;23.10;52.90
15111;DHT22;7656;51.954;7.998;2023-04-06T09:41:53;22.80;51.10
15111;DHT22;7656;51.954;7.998;2023-04-06T09:46:20;24.30;52.40
15111;DHT22;7656;51.954;7.998;2023-04-06T09:50:43;27.20;48.50
15111;DHT22;7656;51.954;7.998;2023-04-06T09:55:05;24.10;48.10
15111;DHT22;7656;51.954;7.998;2023-04-06T09:59:41;18.60;55.20
15111;DHT22;7656;51.954;7.998;2023-04-06T10:04:21;16.80;60.00
15111;DHT22;7656;51.954;7.998;2023-04-06T10:08:47;16.50;58.90
15111;DHT22;7656;51.954;7.998;2023-04-06T10:13:11;16.10;61.80
15111;DHT22;7656;51.954;7.998;2023-04-06T10:17:32;16.70;61.70
15111;DHT22;7656;51.954;7.998;2023-04-06T10:21:55;16.80;59.50
15111;DHT22;7656;51.954;7.998;2023-04-06T10:26:20;16.30;60.60
15111;DHT22;7656;51.954;7.998;2023-04-06T10:30:42;16.50;59.90
15111;DHT22;7656;51.954;7.998;2023-04-06T10:35:08;18.30;58.10
15111;DHT22;7656;51.954;7.998;2023-04-06T10:39:30;18.50;57.40
15111;DHT22;7656;51.954;7.998;2023-04-06T10:43:56;17.80;57.60
15111;DHT22;7656;51.954;7.998;2023-04-06T10:48:18;17.80;58.90
15111;DHT22;7656;51.954;7.998;2023-04-06T10:52:39;20.50;55.50
15111;DHT22;7656;51.954;7.998;2023-04-06T10:57:00;21.10;54.30
15111;DHT22;7656;51.954;7.998;2023-04-06T11:01:23;18.50;57.70
15111;DHT22;7656;51.954;7.998;2023-04-06T11:05:48;21.30;53.80
15111;DHT22;7656;51.954;7.998;2023-04-06T11:10:10;24.50;50.00
15111;DHT22;7656;51.954;7.998;2023-04-06T11:14:31;26.90;47.80
15111;DHT22;7656;51.954;7.998;2023-04-06T11:18:56;24.90;48.30
15111;DHT22;7656;51.954;7.998;2023-04-06T11:23:25;23.60;49.30
15111;DHT22;7656;51.954;7.998;2023-04-06T11:27:46;24.40;48.90
15111;DHT22;7656;51.954;7.998;2023-04-06T11:32:08;26.90;46.80
15111;DHT22;7656;51.954;7.998;2023-04-06T11:36:30;29.00;44.50
15111;DHT22;7656;51.954;7.998;2023-04-06T11:40:54;28.50;43.30
15111;DHT22;7656;51.954;7.998;2023-04-06T11:45:15;29.70;40.90
15111;DHT22;7656;51.954;7.998;2023-04-06T11:49:38;27.10;42.80
15111;DHT22;7656;51.954;7.998;2023-04-06T11:54:00;25.50;44.50
15111;DHT22;7656;51.954;7.998;2023-04-06T11:58:21;24.50;45.70
15111;DHT22;7656;51.954;7.998;2023-04-06T12:02:46;21.30;48.60
15111;DHT22;7656;51.954;7.998;2023-04-06T12:07:08;19.60;51.40
15111;DHT22;7656;51.954;7.998;2023-04-06T12:11:29;19.90;50.70
15111;DHT22;7656;51.954;7.998;2023-04-06T12:15:50;18.30;52.50
15111;DHT22;7656;51.954;7.998;2023-04-06T12:20:11;18.80;51.80
15111;DHT22;7656;51.954;7.998;2023-04-06T12:24:32;20.00;50.30
15111;DHT22;7656;51.954;7.998;2023-04-06T12:28:54;19.30;52.10
15111;DHT22;7656;51.954;7.998;2023-04-06T12:33:15;20.80;49.70
15111;DHT22;7656;51.954;7.998;2023-04-06T12:37:36;18.60;51.40
15111;DHT22;7656;51.954;7.998;2023-04-06T12:41:57;17.00;54.80
15111;DHT22;7656;51.954;7.998;2023-04-06T12:46:18;17.50;53.40
15111;DHT22;7656;51.954;7.998;2023-04-06T12:50:41;18.70;51.60
15111;DHT22;7656;51.954;7.998;2023-04-06T12:55:03;20.80;50.10
15111;DHT22;7656;51.954;7.998;2023-04-06T12:59:25;21.10;47.80
15111;DHT22;7656;51.954;7.998;2023-04-06T13:03:47;20.90;45.40
15111;DHT22;7656;51.954;7.998;2023-04-06T13:08:08;19.00;48.00
15111;DHT22;7656;51.954;7.998;2023-04-06T13:12:29;19.20;49.00
15111;DHT22;7656;51.954;7.998;2023-04-06T13:16:50;19.40;48.60
15111;DHT22;7656;51.954;7.998;2023-04-06T13:21:14;19.60;49.70
15111;DHT22;7656;51.954;7.998;2023-04-06T13:25:36;18.80;49.60
15111;DHT22;7656;51.954;7.998;2023-04-06T13:29:58;18.00;50.30
15111;DHT22;7656;51.954;7.998;2023-04-06T13:34:19;18.50;49.60
15111;DHT22;7656;51.954;7.998;2023-04-06T13:38:40;19.00;50.00
15111;DHT22;7656;51.954;7.998;2023-04-06T13:43:02;19.50;49.10
15111;DHT22;7656;51.954;7.998;2023-04-06T13:47:23;19.80;49.30
15111;DHT22;7656;51.954;7.998;2023-04-06T13:51:44;19.30;49.10
15111;DHT22;7656;51.954;7.998;2023-04-06T13:56:05;19.80;47.70
15111;DHT22;7656;51.954;7.998;2023-04-06T14:00:27;20.00;47.40
15111;DHT22;7656;51.954;7.998;2023-04-06T14:04:48;19.80;48.50
15111;DHT22;7656;51.954;7.998;2023-04-06T14:09:10;19.30;48.40
15111;DHT22;7656;51.954;7.998;2023-04-06T14:13:31;17.30;50.40
15111;DHT22;7656;51.954;7.998;2023-04-06T14:17:52;16.80;51.10
15111;DHT22;7656;51.954;7.998;2023-04-06T14:22:13;16.60;52.80
15111;DHT22;7656;51.954;7.998;2023-04-06T14:26:35;15.40;55.00
15111;DHT22;7656;51.954;7.998;2023-04-06T14:31:02;16.20;53.60
15111;DHT22;7656;51.954;7.998;2023-04-06T14:35:29;16.40;53.40
15111;DHT22;7656;51.954;7.998;2023-04-06T14:39:53;15.80;54.00
15111;DHT22;7656;51.954;7.998;2023-04-06T14:44:15;15.60;55.90
15111;DHT22;7656;51.954;7.998;2023-04-06T14:48:37;15.10;58.30
15111;DHT22;7656;51.954;7.998;2023-04-06T14:52:58;15.50;55.90
15111;DHT22;7656;51.954;7.998;2023-04-06T14:57:20;15.90;55.60
15111;DHT22;7656;51.954;7.998;2023-04-06T15:01:41;16.60;53.80
15111;DHT22;7656;51.954;7.998;2023-04-06T15:06:02;16.60;54.10
15111;DHT22;7656;51.954;7.998;2023-04-06T15:10:24;16.20;56.40
15111;DHT22;7656;51.954;7.998;2023-04-06T15:14:45;16.10;55.90
15111;DHT22;7656;51.954;7.998;2023-04-06T15:19:06;16.40;55.30
15111;DHT22;7656;51.954;7.998;2023-04-06T15:23:29;16.50;56.10
15111;DHT22;7656;51.954;7.998;2023-04-06T15:27:50;16.00;56.80
15111;DHT22;7656;51.954;7.998;2023-04-06T15:32:11;16.00;59.10
15111;DHT22;7656;51.954;7.998;2023-04-06T15:36:33;15.40;59.60
15111;DHT22;7656;51.954;7.998;2023-04-06T15:40:54;15.20;59.70
15111;DHT22;7656;51.954;7.998;2023-04-06T15:45:16;15.70;59.50
15111;DHT22;7656;51.954;7.998;2023-04-06T15:49:37;16.10;59.10
15111;DHT22;7656;51.954;7.998;2023-04-06T15:53:58;16.00;60.50
15111;DHT22;7656;51.954;7.998;2023-04-06T15:58:19;16.00;61.50
15111;DHT22;7656;51.954;7.998;2023-04-06T16:02:40;15.90;63.30
15111;DHT22;7656;51.954;7.998;2023-04-06T16:07:02;15.80;66.50
15111;DHT22;7656;51.954;7.998;2023-04-06T16:11:24;15.50;66.60
15111;DHT22;7656;51.954;7.998;2023-04-06T16:15:49;15.50;67.10
15111;DHT22;7656;51.954;7.998;2023-04-06T16:20:10;15.60;67.60
15111;DHT22;7656;51.954;7.998;2023-04-06T16:24:32;15.70;68.30
15111;DHT22;7656;51.954;7.998;2023-04-06T16:28:53;15.10;69.70
15111;DHT22;7656;51.954;7.998;2023-04-06T16:33:15;14.80;70.60
15111;DHT22;7656;51.954;7.998;2023-04-06T16:37:39;15.00;69.30
15111;DHT22;7656;51.954;7.998;2023-04-06T16:42:00;14.70;71.90
15111;DHT22;7656;51.954;7.998;2023-04-06T16:46:21;14.00;75.10
15111;DHT22;7656;51.954;7.998;2023-04-06T16:50:49;13.90;75.20
15111;DHT22;7656;51.954;7.998;2023-04-06T16:55:11;13.70;76.70
15111;DHT22;7656;51.954;7.998;2023-04-06T16:59:32;13.60;78.90
15111;DHT22;7656;51.954;7.998;2023-04-06T17:03:54;13.90;77.60
15111;DHT22;7656;51.954;7.998;2023-04-06T17:08:15;14.10;76.30
15111;DHT22;7656;51.954;7.998;2023-04-06T17:12:37;14.30;75.50
15111;DHT22;7656;51.954;7.998;2023-04-06T17:16:58;14.40;75.20
15111;DHT22;7656;51.954;7.998;2023-04-06T17:21:19;14.30;75.30
15111;DHT22;7656;51.954;7.998;2023-04-06T17:25:40;14.30;75.80
15111;DHT22;7656;51.954;7.998;2023-04-06T17:30:01;14.30;77.80
15111;DHT22;7656;51.954;7.998;2023-04-06T17:34:26;14.20;78.10
15111;DHT22;7656;51.954;7.998;2023-04-06T17:38:47;14.10;78.70
15111;DHT22;7656;51.954;7.998;2023-04-06T17:43:08;14.00;80.00
15111;DHT22;7656;51.954;7.998;2023-04-06T17:47:29;13.50;83.00
15111;DHT22;7656;51.954;7.998;2023-04-06T17:51:51;12.90;86.20
15111;DHT22;7656;51.954;7.998;2023-04-06T17:56:12;13.10;87.70
15111;DHT22;7656;51.954;7.998;2023-04-06T18:00:34;13.00;87.70
15111;DHT22;7656;51.954;7.998;2023-04-06T18:04:55;13.20;89.50
15111;DHT22;7656;51.954;7.998;2023-04-06T18:09:16;13.00;91.00
15111;DHT22;7656;51.954;7.998;2023-04-06T18:13:37;13.00;93.10
15111;DHT22;7656;51.954;7.998;2023-04-06T18:17:58;12.80;95.20
15111;DHT22;7656;51.954;7.998;2023-04-06T18:22:19;12.80;96.60
15111;DHT22;7656;51.954;7.998;2023-04-06T18:26:40;12.80;98.00
15111;DHT22;7656;51.954;7.998;2023-04-06T18:31:01;12.80;99.60
15111;DHT22;7656;51.954;7.998;2023-04-06T18:35:22;12.60;99.90
15111;DHT22;7656;51.954;7.998;2023-04-06T18:39:44;12.60;99.90
15111;DHT22;7656;51.954;7.998;2023-04-06T18:44:05;12.10;99.90
15111;DHT22;7656;51.954;7.998;2023-04-06T18:48:26;11.90;99.90
15111;DHT22;7656;51.954;7.998;2023-04-06T18:52:47;11.90;99.90
15111;DHT22;7656;51.954;7.998;2023-04-06T18:57:08;11.80;99.90
15111;DHT22;7656;51.954;7.998;2023-04-06T19:01:30;11.70;99.90
15111;DHT22;7656;51.954;7.998;2023-04-06T19:05:52;11.30;99.90
15111;DHT22;7656;51.954;7.998;2023-04-06T19:10:13;11.30;99.90
15111;DHT22;7656;51.954;7.998;2023-04-06T19:14:34;11.00;99.90
15111;DHT22;7656;51.954;7.998;2023-04-06T19:18:55;10.50;99.90
15111;DHT22;7656;51.954;7.998;2023-04-06T19:23:17;10.20;99.90
15111;DHT22;7656;51.954;7.998;2023-04-06T19:27:38;10.20;99.90
15111;DHT22;7656;51.954;7.998;2023-04-06T19:32:00;10.00;99.90
15111;DHT22;7656;51.954;7.998;2023-04-06T19:36:21;10.30;99.90
15111;DHT22;7656;51.954;7.998;2023-04-06T19:40:42;10.30;99.90
15111;DHT22;7656;51.954;7.998;2023-04-06T19:45:05;10.10;99.90
15111;DHT22;7656;51.954;7.998;2023-04-06T19:49:26;9.80;99.90
15111;DHT22;7656;51.954;7.998;2023-04-06T19:53:48;9.70;99.90
15111;DHT22;7656;51.954;7.998;2023-04-06T19:58:09;9.50;99.90
15111;DHT22;7656;51.954;7.998;2023-04-06T20:02:30;9.50;99.90
15111;DHT22;7656;51.954;7.998;2023-04-06T20:06:51;9.40;99.90
15111;DHT22;7656;51.954;7.998;2023-04-06T20:11:13;9.70;99.90
15111;DHT22;7656;51.954;7.998;2023-04-06T20:15:35;9.30;99.90
15111;DHT22;7656;51.954;7.998;2023-04-06T20:19:56;8.90;99.90
15111;DHT22;7656;51.954;7.998;2023-04-06T20:24:17;9.10;99.90
15111;DHT22;7656;51.954;7.998;2023-04-06T20:28:38;8.90;99.90
15111;DHT22;7656;51.954;7.998;2023-04-06T20:33:00;8.80;99.90
15111;DHT22;7656;51.954;7.998;2023-04-06T20:37:21;8.60;99.90
15111;DHT22;7656;51.954;7.998;2023-04-06T20:41:42;8.60;99.90
15111;DHT22;7656;51.954;7.998;2023-04-06T20:46:03;8.60;99.90
15111;DHT22;7656;51.954;7.998;2023-04-06T20:50:26;8.40;99.90
15111;DHT22;7656;51.954;7.998;2023-04-06T20:54:47;8.40;99.90
15111;DHT22;7656;51.954;7.998;2023-04-06T20:59:10;8.30;99.90
15111;DHT22;7656;51.954;7.998;2023-04-06T21:03:31;8.30;99.90
15111;DHT22;7656;51.954;7.998;2023-04-06T21:07:52;8.30;99.90
15111;DHT22;7656;51.954;7.998;2023-04-06T21:12:13;8.20;99.90
15111;DHT22;7656;51.954;7.998;2023-04-06T21:16:35;8.10;99.90
15111;DHT22;7656;51.954;7.998;2023-04-06T21:20:56;7.90;99.90
15111;DHT22;7656;51.954;7.998;2023-04-06T21:25:17;7.80;99.90
15111;DHT22;7656;51.954;7.998;2023-04-06T21:29:38;7.70;99.90
15111;DHT22;7656;51.954;7.998;2023-04-06T21:34:00;7.70;99.90
15111;DHT22;7656;51.954;7.998;2023-04-06T21:38:21;7.60;99.90
15111;DHT22;7656;51.954;7.998;2023-04-06T21:42:42;7.60;99.90
15111;DHT22;7656;51.954;7.998;2023-04-06T21:47:03;7.70;99.90
15111;DHT22;7656;51.954;7.998;2023-04-06T21:51:24;7.70;99.90
15111;DHT22;7656;51.954;7.998;2023-04-06T21:55:45;7.60;99.90
15111;DHT22;7656;51.954;7.998;2023-04-06T22:00:07;7.50;99.90
15111;DHT22;7656;51.954;7.998;2023-04-06T22:04:35;7.50;99.90
15111;DHT22;7656;51.954;7.998;2023-04-06T22:08:56;7.50;99.90
15111;DHT22;7656;51.954;7.998;2023-04-06T22:13:17;7.50;99.90
15111;DHT22;7656;51.954;7.998;2023-04-06T22:17:39;7.50;99.90
15111;DHT22;7656;51.954;7.998;2023-04-06T22:22:00;7.40;99.90
15111;DHT22;7656;51.954;7.998;2023-04-06T22:26:21;7.40;99.90
15111;DHT22;7656;51.954;7.998;2023-04-06T22:30:43;7.40;99.90
15111;DHT22;7656;51.954;7.998;2023-04-06T22:35:04;7.40;99.90
15111;DHT22;7656;51.954;7.998;2023-04-06T22:39:26;7.40;99.90
15111;DHT22;7656;51.954;7.998;2023-04-06T22:43:47;7.30;99.90
15111;DHT22;7656;51.954;7.998;2023-04-06T22:48:08;7.40;99.90
15111;DHT22;7656;51.954;7.998;2023-04-06T22:52:29;7.30;99.90
15111;DHT22;7656;51.954;7.998;2023-04-06T22:56:50;7.30;99.90
15111;DHT22;7656;51.954;7.998;2023-04-06T23:01:11;7.20;99.90
15111;DHT22;7656;51.954;7.998;2023-04-06T23:05:32;7.20;99.90
15111;DHT22;7656;51.954;7.998;2023-04-06T23:09:53;7.10;99.90
15111;DHT22;7656;51.954;7.998;2023-04-06T23:14:15;7.10;99.90
15111;DHT22;7656;51.954;7.998;2023-04-06T23:18:36;7.00;99.90
15111;DHT22;7656;51.954;7.998;2023-04-06T23:22:57;6.90;99.90
15111;DHT22;7656;51.954;7.998;2023-04-06T23:27:18;6.90;99.90
15111;DHT22;7656;51.954;7.998;2023-04-06T23:31:39;6.90;99.90
15111;DHT22;7656;51.954;7.998;2023-04-06T23:36:00;6.90;99.90
15111;DHT22;7656;51.954;7.998;2023-04-06T23:40:21;6.80;99.90
15111;DHT22;7656;51.954;7.998;2023-04-06T23:44:44;6.80;99.90
15111;DHT22;7656;51.954;7.998;2023-04-06T23:49:05;6.80;99.90
15111;DHT22;7656;51.954;7.998;2023-04-06T23:53:27;6.70;99.90
15111;DHT22;7656;51.954;7.998;2023-04-06T23:57:48;6.70;99.90
